sensor_id;sensor_type;location;lat;lon;timestamp;P1;durP1;ratioP1;P2;durP2;ratioP2
21876;SDS011;11103;43.788;23.710;2022-12-18T00:01:29;45.00;;;23.13;;
21876;SDS011;11103;43.788;23.710;2022-12-18T00:03:57;47.97;;;23.10;;
21876;SDS011;11103;43.788;23.710;2022-12-18T00:06:25;41.27;;;21.67;;
21876;SDS011;11103;43.788;23.710;2022-12-18T00:08:52;47.00;;;23.40;;
21876;SDS011;11103;43.788;23.710;2022-12-18T00:11:19;45.23;;;21.90;;
21876;SDS011;11103;43.788;23.710;2022-12-18T00:13:46;46.73;;;23.40;;
21876;SDS011;11103;43.788;23.710;2022-12-18T00:16:13;43.63;;;22.27;;
21876;SDS011;11103;43.788;23.710;2022-12-18T00:18:41;41.60;;;21.17;;
21876;SDS011;11103;43.788;23.710;2022-12-18T00:21:08;43.80;;;23.33;;
21876;SDS011;11103;43.788;23.710;2022-12-18T00:23:35;47.63;;;20.87;;
21876;SDS011;11103;43.788;23.710;2022-12-18T00:26:02;43.27;;;20.80;;
21876;SDS011;11103;43.788;23.710;2022-12-18T00:28:30;41.10;;;21.40;;
21876;SDS011;11103;43.788;23.710;2022-12-18T00:31:06;40.07;;;19.97;;
21876;SDS011;11103;43.788;23.710;2022-12-18T00:33:33;44.17;;;21.53;;
21876;SDS011;11103;43.788;23.710;2022-12-18T00:36:02;42.90;;;21.10;;
21876;SDS011;11103;43.788;23.710;2022-12-18T00:38:28;46.43;;;23.03;;
21876;SDS011;11103;43.788;23.710;2022-12-18T00:40:53;43.53;;;23.27;;
21876;SDS011;11103;43.788;23.710;2022-12-18T00:43:19;45.77;;;21.60;;
21876;SDS011;11103;43.788;23.710;2022-12-18T00:45:44;52.43;;;24.07;;
21876;SDS011;11103;43.788;23.710;2022-12-18T00:48:10;42.23;;;21.47;;
21876;SDS011;11103;43.788;23.710;2022-12-18T00:50:37;46.60;;;22.73;;
21876;SDS011;11103;43.788;23.710;2022-12-18T00:53:03;44.27;;;22.53;;
21876;SDS011;11103;43.788;23.710;2022-12-18T00:55:28;45.53;;;23.37;;
21876;SDS011;11103;43.788;23.710;2022-12-18T00:57:54;45.53;;;23.43;;
21876;SDS011;11103;43.788;23.710;2022-12-18T01:00:19;48.80;;;22.53;;
21876;SDS011;11103;43.788;23.710;2022-12-18T01:02:45;56.33;;;26.07;;
21876;SDS011;11103;43.788;23.710;2022-12-18T01:05:11;56.00;;;26.40;;
21876;SDS011;11103;43.788;23.710;2022-12-18T01:07:38;46.27;;;23.33;;
21876;SDS011;11103;43.788;23.710;2022-12-18T01:10:04;51.00;;;24.87;;
21876;SDS011;11103;43.788;23.710;2022-12-18T01:12:31;44.40;;;21.83;;
21876;SDS011;11103;43.788;23.710;2022-12-18T01:14:57;48.03;;;22.80;;
21876;SDS011;11103;43.788;23.710;2022-12-18T01:17:22;46.40;;;22.70;;
21876;SDS011;11103;43.788;23.710;2022-12-18T01:19:48;40.77;;;20.47;;
21876;SDS011;11103;43.788;23.710;2022-12-18T01:22:13;47.37;;;23.53;;
21876;SDS011;11103;43.788;23.710;2022-12-18T01:24:39;45.37;;;21.70;;
21876;SDS011;11103;43.788;23.710;2022-12-18T01:27:04;42.57;;;21.93;;
21876;SDS011;11103;43.788;23.710;2022-12-18T01:29:31;49.23;;;24.00;;
21876;SDS011;11103;43.788;23.710;2022-12-18T01:31:56;49.40;;;22.43;;
21876;SDS011;11103;43.788;23.710;2022-12-18T01:34:22;48.27;;;22.80;;
21876;SDS011;11103;43.788;23.710;2022-12-18T01:36:49;46.00;;;21.43;;
21876;SDS011;11103;43.788;23.710;2022-12-18T01:39:17;47.43;;;23.73;;
21876;SDS011;11103;43.788;23.710;2022-12-18T01:41:44;49.73;;;23.80;;
21876;SDS011;11103;43.788;23.710;2022-12-18T01:49:49;52.77;;;24.67;;
21876;SDS011;11103;43.788;23.710;2022-12-18T01:52:17;48.03;;;23.67;;
21876;SDS011;11103;43.788;23.710;2022-12-18T01:54:44;52.07;;;24.60;;
21876;SDS011;11103;43.788;23.710;2022-12-18T01:57:10;50.00;;;24.83;;
21876;SDS011;11103;43.788;23.710;2022-12-18T01:59:36;47.83;;;25.20;;
21876;SDS011;11103;43.788;23.710;2022-12-18T02:02:02;50.37;;;24.60;;
21876;SDS011;11103;43.788;23.710;2022-12-18T02:04:28;51.53;;;24.97;;
21876;SDS011;11103;43.788;23.710;2022-12-18T02:06:55;54.00;;;25.83;;
21876;SDS011;11103;43.788;23.710;2022-12-18T02:09:30;58.23;;;25.77;;
21876;SDS011;11103;43.788;23.710;2022-12-18T02:12:22;51.93;;;26.47;;
21876;SDS011;11103;43.788;23.710;2022-12-18T02:15:03;58.17;;;24.97;;
21876;SDS011;11103;43.788;23.710;2022-12-18T02:17:43;51.37;;;26.87;;
21876;SDS011;11103;43.788;23.710;2022-12-18T02:21:00;53.30;;;25.10;;
21876;SDS011;11103;43.788;23.710;2022-12-18T02:28:43;51.10;;;24.57;;
21876;SDS011;11103;43.788;23.710;2022-12-18T02:31:14;49.47;;;23.70;;
21876;SDS011;11103;43.788;23.710;2022-12-18T02:33:48;46.70;;;23.13;;
21876;SDS011;11103;43.788;23.710;2022-12-18T02:36:15;46.70;;;23.97;;
21876;SDS011;11103;43.788;23.710;2022-12-18T02:38:42;54.63;;;24.57;;
21876;SDS011;11103;43.788;23.710;2022-12-18T02:41:09;51.33;;;24.17;;
21876;SDS011;11103;43.788;23.710;2022-12-18T02:43:36;51.03;;;24.00;;
21876;SDS011;11103;43.788;23.710;2022-12-18T02:46:20;50.80;;;23.60;;
21876;SDS011;11103;43.788;23.710;2022-12-18T02:49:00;49.47;;;24.17;;
21876;SDS011;11103;43.788;23.710;2022-12-18T02:51:45;51.03;;;24.77;;
21876;SDS011;11103;43.788;23.710;2022-12-18T03:05:38;42.17;;;21.37;;
21876;SDS011;11103;43.788;23.710;2022-12-18T03:08:18;42.40;;;21.23;;
21876;SDS011;11103;43.788;23.710;2022-12-18T03:10:51;46.93;;;21.03;;
21876;SDS011;11103;43.788;23.710;2022-12-18T03:13:27;45.37;;;21.70;;
21876;SDS011;11103;43.788;23.710;2022-12-18T03:15:57;44.40;;;22.30;;
21876;SDS011;11103;43.788;23.710;2022-12-18T03:20:52;44.10;;;22.43;;
21876;SDS011;11103;43.788;23.710;2022-12-18T03:23:24;39.53;;;17.33;;
21876;SDS011;11103;43.788;23.710;2022-12-18T03:25:56;39.30;;;21.00;;
21876;SDS011;11103;43.788;23.710;2022-12-18T03:28:25;44.23;;;22.47;;
21876;SDS011;11103;43.788;23.710;2022-12-18T03:30:58;43.77;;;22.37;;
21876;SDS011;11103;43.788;23.710;2022-12-18T03:33:26;46.90;;;22.40;;
21876;SDS011;11103;43.788;23.710;2022-12-18T03:35:58;49.93;;;22.93;;
21876;SDS011;11103;43.788;23.710;2022-12-18T03:38:24;44.07;;;21.63;;
21876;SDS011;11103;43.788;23.710;2022-12-18T03:48:48;45.43;;;20.80;;
21876;SDS011;11103;43.788;23.710;2022-12-18T03:51:29;39.23;;;19.37;;
21876;SDS011;11103;43.788;23.710;2022-12-18T03:54:03;41.80;;;20.67;;
21876;SDS011;11103;43.788;23.710;2022-12-18T03:56:33;43.13;;;20.83;;
21876;SDS011;11103;43.788;23.710;2022-12-18T03:59:10;45.77;;;23.30;;
21876;SDS011;11103;43.788;23.710;2022-12-18T04:01:39;51.07;;;25.00;;
21876;SDS011;11103;43.788;23.710;2022-12-18T04:04:08;53.17;;;23.43;;
21876;SDS011;11103;43.788;23.710;2022-12-18T04:06:35;60.87;;;27.07;;
21876;SDS011;11103;43.788;23.710;2022-12-18T04:09:02;50.83;;;24.47;;
21876;SDS011;11103;43.788;23.710;2022-12-18T04:11:29;53.43;;;25.17;;
21876;SDS011;11103;43.788;23.710;2022-12-18T04:13:56;48.77;;;23.57;;
21876;SDS011;11103;43.788;23.710;2022-12-18T04:16:23;42.83;;;21.13;;
21876;SDS011;11103;43.788;23.710;2022-12-18T04:18:49;49.97;;;21.90;;
21876;SDS011;11103;43.788;23.710;2022-12-18T04:21:14;44.93;;;21.30;;
21876;SDS011;11103;43.788;23.710;2022-12-18T04:23:40;39.73;;;21.60;;
21876;SDS011;11103;43.788;23.710;2022-12-18T04:26:05;38.77;;;18.17;;
21876;SDS011;11103;43.788;23.710;2022-12-18T04:28:30;41.47;;;21.70;;
21876;SDS011;11103;43.788;23.710;2022-12-18T04:30:56;37.90;;;20.50;;
21876;SDS011;11103;43.788;23.710;2022-12-18T04:33:21;42.33;;;21.07;;
21876;SDS011;11103;43.788;23.710;2022-12-18T04:35:46;49.63;;;23.40;;
21876;SDS011;11103;43.788;23.710;2022-12-18T04:38:12;44.00;;;22.07;;
21876;SDS011;11103;43.788;23.710;2022-12-18T04:40:37;42.07;;;21.00;;
21876;SDS011;11103;43.788;23.710;2022-12-18T04:43:03;39.93;;;21.27;;
21876;SDS011;11103;43.788;23.710;2022-12-18T04:45:30;47.17;;;23.87;;
21876;SDS011;11103;43.788;23.710;2022-12-18T04:48:00;45.30;;;23.60;;
21876;SDS011;11103;43.788;23.710;2022-12-18T04:50:26;46.27;;;23.17;;
21876;SDS011;11103;43.788;23.710;2022-12-18T04:52:51;44.60;;;22.70;;
21876;SDS011;11103;43.788;23.710;2022-12-18T04:55:17;51.97;;;25.17;;
21876;SDS011;11103;43.788;23.710;2022-12-18T04:57:42;51.47;;;24.17;;
21876;SDS011;11103;43.788;23.710;2022-12-18T05:00:09;43.70;;;22.80;;
21876;SDS011;11103;43.788;23.710;2022-12-18T05:02:35;36.27;;;18.77;;
21876;SDS011;11103;43.788;23.710;2022-12-18T05:05:01;41.40;;;22.33;;
21876;SDS011;11103;43.788;23.710;2022-12-18T05:07:27;45.13;;;23.47;;
21876;SDS011;11103;43.788;23.710;2022-12-18T05:09:52;39.83;;;21.50;;
21876;SDS011;11103;43.788;23.710;2022-12-18T05:12:17;41.50;;;21.60;;
21876;SDS011;11103;43.788;23.710;2022-12-18T05:14:43;46.70;;;22.17;;
21876;SDS011;11103;43.788;23.710;2022-12-18T05:17:08;42.40;;;22.87;;
21876;SDS011;11103;43.788;23.710;2022-12-18T05:19:34;46.83;;;22.13;;
21876;SDS011;11103;43.788;23.710;2022-12-18T05:22:00;45.30;;;20.00;;
21876;SDS011;11103;43.788;23.710;2022-12-18T05:24:26;42.13;;;21.40;;
21876;SDS011;11103;43.788;23.710;2022-12-18T05:26:51;44.43;;;20.50;;
21876;SDS011;11103;43.788;23.710;2022-12-18T05:29:17;44.13;;;21.93;;
21876;SDS011;11103;43.788;23.710;2022-12-18T05:31:42;46.73;;;22.90;;
21876;SDS011;11103;43.788;23.710;2022-12-18T05:34:08;43.40;;;23.23;;
21876;SDS011;11103;43.788;23.710;2022-12-18T05:36:33;47.43;;;22.60;;
21876;SDS011;11103;43.788;23.710;2022-12-18T05:38:59;43.37;;;23.00;;
21876;SDS011;11103;43.788;23.710;2022-12-18T05:41:26;46.93;;;23.43;;
21876;SDS011;11103;43.788;23.710;2022-12-18T05:43:52;42.10;;;21.60;;
21876;SDS011;11103;43.788;23.710;2022-12-18T05:46:17;44.00;;;21.23;;
21876;SDS011;11103;43.788;23.710;2022-12-18T05:48:43;41.97;;;18.93;;
21876;SDS011;11103;43.788;23.710;2022-12-18T05:51:13;41.27;;;22.53;;
21876;SDS011;11103;43.788;23.710;2022-12-18T05:53:40;45.37;;;22.37;;
21876;SDS011;11103;43.788;23.710;2022-12-18T05:56:08;39.67;;;21.20;;
21876;SDS011;11103;43.788;23.710;2022-12-18T05:58:35;43.60;;;21.20;;
21876;SDS011;11103;43.788;23.710;2022-12-18T06:01:14;43.33;;;20.50;;
21876;SDS011;11103;43.788;23.710;2022-12-18T06:03:42;46.20;;;20.57;;
21876;SDS011;11103;43.788;23.710;2022-12-18T06:06:19;36.90;;;19.27;;
21876;SDS011;11103;43.788;23.710;2022-12-18T06:08:47;44.27;;;21.60;;
21876;SDS011;11103;43.788;23.710;2022-12-18T06:11:13;44.43;;;21.67;;
21876;SDS011;11103;43.788;23.710;2022-12-18T06:13:40;42.30;;;19.87;;
21876;SDS011;11103;43.788;23.710;2022-12-18T06:16:06;39.67;;;20.63;;
21876;SDS011;11103;43.788;23.710;2022-12-18T06:18:32;46.63;;;21.93;;
21876;SDS011;11103;43.788;23.710;2022-12-18T06:20:58;42.60;;;20.57;;
21876;SDS011;11103;43.788;23.710;2022-12-18T06:23:25;38.97;;;20.20;;
21876;SDS011;11103;43.788;23.710;2022-12-18T06:25:51;40.90;;;19.60;;
21876;SDS011;11103;43.788;23.710;2022-12-18T06:28:17;38.03;;;19.27;;
21876;SDS011;11103;43.788;23.710;2022-12-18T06:30:46;39.87;;;20.27;;
21876;SDS011;11103;43.788;23.710;2022-12-18T06:33:13;44.80;;;21.13;;
21876;SDS011;11103;43.788;23.710;2022-12-18T06:35:39;44.30;;;21.53;;
21876;SDS011;11103;43.788;23.710;2022-12-18T06:38:05;44.13;;;21.33;;
21876;SDS011;11103;43.788;23.710;2022-12-18T06:40:30;43.50;;;22.30;;
21876;SDS011;11103;43.788;23.710;2022-12-18T06:42:56;46.83;;;22.03;;
21876;SDS011;11103;43.788;23.710;2022-12-18T06:45:22;43.33;;;21.70;;
21876;SDS011;11103;43.788;23.710;2022-12-18T06:47:48;42.97;;;21.43;;
21876;SDS011;11103;43.788;23.710;2022-12-18T06:50:13;47.37;;;22.37;;
21876;SDS011;11103;43.788;23.710;2022-12-18T06:52:39;44.77;;;21.50;;
21876;SDS011;11103;43.788;23.710;2022-12-18T06:55:05;41.80;;;22.03;;
21876;SDS011;11103;43.788;23.710;2022-12-18T06:57:34;44.23;;;21.70;;
21876;SDS011;11103;43.788;23.710;2022-12-18T07:00:00;44.30;;;21.87;;
21876;SDS011;11103;43.788;23.710;2022-12-18T07:02:26;40.63;;;20.70;;
21876;SDS011;11103;43.788;23.710;2022-12-18T07:04:51;40.90;;;20.67;;
21876;SDS011;11103;43.788;23.710;2022-12-18T07:07:18;42.40;;;19.83;;
21876;SDS011;11103;43.788;23.710;2022-12-18T07:09:44;38.23;;;21.03;;
21876;SDS011;11103;43.788;23.710;2022-12-18T07:12:09;47.47;;;21.87;;
21876;SDS011;11103;43.788;23.710;2022-12-18T07:14:35;41.67;;;21.67;;
21876;SDS011;11103;43.788;23.710;2022-12-18T07:17:00;44.00;;;21.73;;
21876;SDS011;11103;43.788;23.710;2022-12-18T07:19:25;42.33;;;20.23;;
21876;SDS011;11103;43.788;23.710;2022-12-18T07:21:51;43.10;;;20.87;;
21876;SDS011;11103;43.788;23.710;2022-12-18T07:24:16;41.27;;;20.67;;
21876;SDS011;11103;43.788;23.710;2022-12-18T07:26:42;38.47;;;21.03;;
21876;SDS011;11103;43.788;23.710;2022-12-18T07:29:07;36.37;;;19.83;;
21876;SDS011;11103;43.788;23.710;2022-12-18T07:31:33;37.83;;;20.43;;
21876;SDS011;11103;43.788;23.710;2022-12-18T07:33:58;38.33;;;20.87;;
21876;SDS011;11103;43.788;23.710;2022-12-18T07:36:24;37.30;;;18.63;;
21876;SDS011;11103;43.788;23.710;2022-12-18T07:38:49;37.83;;;20.30;;
21876;SDS011;11103;43.788;23.710;2022-12-18T07:41:15;40.67;;;19.77;;
21876;SDS011;11103;43.788;23.710;2022-12-18T07:43:41;38.33;;;19.23;;
21876;SDS011;11103;43.788;23.710;2022-12-18T07:46:07;40.83;;;21.07;;
21876;SDS011;11103;43.788;23.710;2022-12-18T07:48:35;38.77;;;19.70;;
21876;SDS011;11103;43.788;23.710;2022-12-18T07:51:01;35.03;;;19.83;;
21876;SDS011;11103;43.788;23.710;2022-12-18T07:53:29;33.37;;;18.70;;
21876;SDS011;11103;43.788;23.710;2022-12-18T07:55:58;35.53;;;16.50;;
21876;SDS011;11103;43.788;23.710;2022-12-18T07:58:28;33.43;;;17.77;;
21876;SDS011;11103;43.788;23.710;2022-12-18T08:00:54;33.77;;;17.47;;
21876;SDS011;11103;43.788;23.710;2022-12-18T08:03:27;33.63;;;17.70;;
21876;SDS011;11103;43.788;23.710;2022-12-18T08:05:57;33.13;;;18.03;;
21876;SDS011;11103;43.788;23.710;2022-12-18T08:08:23;32.53;;;17.27;;
21876;SDS011;11103;43.788;23.710;2022-12-18T08:10:49;28.53;;;15.03;;
21876;SDS011;11103;43.788;23.710;2022-12-18T08:13:14;30.73;;;16.40;;
21876;SDS011;11103;43.788;23.710;2022-12-18T08:15:39;30.93;;;15.30;;
21876;SDS011;11103;43.788;23.710;2022-12-18T08:18:05;29.20;;;15.97;;
21876;SDS011;11103;43.788;23.710;2022-12-18T08:20:30;33.50;;;16.33;;
21876;SDS011;11103;43.788;23.710;2022-12-18T08:22:55;29.37;;;14.90;;
21876;SDS011;11103;43.788;23.710;2022-12-18T08:25:23;29.47;;;14.93;;
21876;SDS011;11103;43.788;23.710;2022-12-18T08:27:48;30.03;;;14.73;;
21876;SDS011;11103;43.788;23.710;2022-12-18T08:30:14;34.60;;;16.03;;
21876;SDS011;11103;43.788;23.710;2022-12-18T08:32:39;30.17;;;16.20;;
21876;SDS011;11103;43.788;23.710;2022-12-18T08:35:05;32.70;;;16.00;;
21876;SDS011;11103;43.788;23.710;2022-12-18T08:37:31;35.37;;;16.90;;
21876;SDS011;11103;43.788;23.710;2022-12-18T08:39:56;35.07;;;17.73;;
21876;SDS011;11103;43.788;23.710;2022-12-18T08:42:21;36.10;;;18.40;;
21876;SDS011;11103;43.788;23.710;2022-12-18T08:45:05;36.80;;;19.30;;
21876;SDS011;11103;43.788;23.710;2022-12-18T08:47:31;52.83;;;23.93;;
21876;SDS011;11103;43.788;23.710;2022-12-18T08:49:57;59.13;;;24.30;;
21876;SDS011;11103;43.788;23.710;2022-12-18T08:52:22;38.67;;;19.27;;
21876;SDS011;11103;43.788;23.710;2022-12-18T08:54:48;37.57;;;18.20;;
21876;SDS011;11103;43.788;23.710;2022-12-18T08:57:13;38.27;;;18.77;;
21876;SDS011;11103;43.788;23.710;2022-12-18T08:59:38;42.43;;;19.37;;
21876;SDS011;11103;43.788;23.710;2022-12-18T09:02:04;38.20;;;18.23;;
21876;SDS011;11103;43.788;23.710;2022-12-18T09:04:29;38.97;;;19.53;;
21876;SDS011;11103;43.788;23.710;2022-12-18T09:06:55;35.90;;;19.67;;
21876;SDS011;11103;43.788;23.710;2022-12-18T09:09:26;35.17;;;18.40;;
21876;SDS011;11103;43.788;23.710;2022-12-18T09:11:51;39.83;;;19.57;;
21876;SDS011;11103;43.788;23.710;2022-12-18T09:14:17;40.80;;;19.03;;
21876;SDS011;11103;43.788;23.710;2022-12-18T09:16:43;38.27;;;18.03;;
21876;SDS011;11103;43.788;23.710;2022-12-18T09:19:09;37.27;;;18.33;;
21876;SDS011;11103;43.788;23.710;2022-12-18T09:21:38;37.33;;;18.67;;
21876;SDS011;11103;43.788;23.710;2022-12-18T09:24:04;39.37;;;19.17;;
21876;SDS011;11103;43.788;23.710;2022-12-18T09:26:30;32.00;;;16.80;;
21876;SDS011;11103;43.788;23.710;2022-12-18T09:28:55;39.87;;;19.77;;
21876;SDS011;11103;43.788;23.710;2022-12-18T09:31:21;36.63;;;18.43;;
21876;SDS011;11103;43.788;23.710;2022-12-18T09:33:47;35.23;;;17.30;;
21876;SDS011;11103;43.788;23.710;2022-12-18T09:36:14;35.53;;;18.30;;
21876;SDS011;11103;43.788;23.710;2022-12-18T09:38:41;37.27;;;17.63;;
21876;SDS011;11103;43.788;23.710;2022-12-18T09:43:58;36.70;;;18.20;;
21876;SDS011;11103;43.788;23.710;2022-12-18T09:46:35;38.17;;;19.10;;
21876;SDS011;11103;43.788;23.710;2022-12-18T09:49:11;39.77;;;19.30;;
21876;SDS011;11103;43.788;23.710;2022-12-18T09:51:41;33.07;;;17.40;;
21876;SDS011;11103;43.788;23.710;2022-12-18T09:54:12;34.27;;;15.00;;
21876;SDS011;11103;43.788;23.710;2022-12-18T09:56:42;37.47;;;16.60;;
21876;SDS011;11103;43.788;23.710;2022-12-18T09:59:54;40.73;;;18.83;;
21876;SDS011;11103;43.788;23.710;2022-12-18T10:02:02;33.43;;;16.40;;
21876;SDS011;11103;43.788;23.710;2022-12-18T10:04:50;44.37;;;18.90;;
21876;SDS011;11103;43.788;23.710;2022-12-18T10:07:38;40.77;;;18.90;;
21876;SDS011;11103;43.788;23.710;2022-12-18T10:13:00;41.47;;;17.43;;
21876;SDS011;11103;43.788;23.710;2022-12-18T10:27:57;31.80;;;17.53;;
21876;SDS011;11103;43.788;23.710;2022-12-18T10:30:26;29.20;;;15.20;;
21876;SDS011;11103;43.788;23.710;2022-12-18T10:32:52;29.47;;;14.87;;
21876;SDS011;11103;43.788;23.710;2022-12-18T10:35:19;24.90;;;13.83;;
21876;SDS011;11103;43.788;23.710;2022-12-18T10:38:02;20.43;;;11.67;;
21876;SDS011;11103;43.788;23.710;2022-12-18T10:40:27;20.23;;;10.17;;
21876;SDS011;11103;43.788;23.710;2022-12-18T10:43:03;21.27;;;10.50;;
21876;SDS011;11103;43.788;23.710;2022-12-18T10:45:30;23.40;;;11.23;;
21876;SDS011;11103;43.788;23.710;2022-12-18T10:47:56;19.63;;;9.90;;
21876;SDS011;11103;43.788;23.710;2022-12-18T10:50:31;18.63;;;10.77;;
21876;SDS011;11103;43.788;23.710;2022-12-18T10:52:59;17.67;;;10.17;;
21876;SDS011;11103;43.788;23.710;2022-12-18T10:55:27;18.77;;;10.37;;
21876;SDS011;11103;43.788;23.710;2022-12-18T10:58:13;20.13;;;9.83;;
21876;SDS011;11103;43.788;23.710;2022-12-18T11:01:01;16.33;;;8.87;;
21876;SDS011;11103;43.788;23.710;2022-12-18T11:04:15;16.70;;;9.67;;
21876;SDS011;11103;43.788;23.710;2022-12-18T11:06:15;17.97;;;10.10;;
21876;SDS011;11103;43.788;23.710;2022-12-18T11:08:44;18.90;;;9.83;;
21876;SDS011;11103;43.788;23.710;2022-12-18T11:11:23;19.93;;;9.87;;
21876;SDS011;11103;43.788;23.710;2022-12-18T11:16:43;17.77;;;9.73;;
21876;SDS011;11103;43.788;23.710;2022-12-18T11:19:21;16.73;;;10.03;;
21876;SDS011;11103;43.788;23.710;2022-12-18T11:21:53;17.63;;;9.27;;
21876;SDS011;11103;43.788;23.710;2022-12-18T11:24:20;17.53;;;9.43;;
21876;SDS011;11103;43.788;23.710;2022-12-18T11:26:53;18.90;;;10.10;;
21876;SDS011;11103;43.788;23.710;2022-12-18T11:29:22;18.53;;;10.87;;
21876;SDS011;11103;43.788;23.710;2022-12-18T11:32:05;17.63;;;10.57;;
21876;SDS011;11103;43.788;23.710;2022-12-18T11:35:17;18.73;;;10.37;;
21876;SDS011;11103;43.788;23.710;2022-12-18T11:37:49;19.50;;;11.17;;
21876;SDS011;11103;43.788;23.710;2022-12-18T11:40:30;18.30;;;10.33;;
21876;SDS011;11103;43.788;23.710;2022-12-18T11:43:07;19.43;;;11.53;;
21876;SDS011;11103;43.788;23.710;2022-12-18T11:45:43;19.17;;;10.47;;
21876;SDS011;11103;43.788;23.710;2022-12-18T11:48:27;22.27;;;11.53;;
21876;SDS011;11103;43.788;23.710;2022-12-18T11:50:57;21.23;;;12.03;;
21876;SDS011;11103;43.788;23.710;2022-12-18T11:53:25;23.10;;;11.70;;
21876;SDS011;11103;43.788;23.710;2022-12-18T12:04:40;18.13;;;11.60;;
21876;SDS011;11103;43.788;23.710;2022-12-18T12:21:13;22.97;;;11.50;;
21876;SDS011;11103;43.788;23.710;2022-12-18T12:37:51;27.87;;;14.43;;
21876;SDS011;11103;43.788;23.710;2022-12-18T12:40:24;25.77;;;13.57;;
21876;SDS011;11103;43.788;23.710;2022-12-18T12:42:54;28.37;;;13.43;;
21876;SDS011;11103;43.788;23.710;2022-12-18T12:48:16;26.30;;;13.90;;
21876;SDS011;11103;43.788;23.710;2022-12-18T12:50:50;26.40;;;14.17;;
21876;SDS011;11103;43.788;23.710;2022-12-18T12:53:21;27.37;;;14.47;;
21876;SDS011;11103;43.788;23.710;2022-12-18T12:55:54;29.63;;;15.23;;
21876;SDS011;11103;43.788;23.710;2022-12-18T13:01:17;29.87;;;14.97;;
21876;SDS011;11103;43.788;23.710;2022-12-18T13:06:47;38.63;;;17.00;;
21876;SDS011;11103;43.788;23.710;2022-12-18T13:09:14;36.67;;;17.23;;
21876;SDS011;11103;43.788;23.710;2022-12-18T13:14:32;30.70;;;15.83;;
21876;SDS011;11103;43.788;23.710;2022-12-18T13:17:17;29.07;;;14.63;;
21876;SDS011;11103;43.788;23.710;2022-12-18T13:20:04;30.97;;;16.90;;
21876;SDS011;11103;43.788;23.710;2022-12-18T13:22:45;34.40;;;17.03;;
21876;SDS011;11103;43.788;23.710;2022-12-18T13:28:05;34.67;;;18.00;;
21876;SDS011;11103;43.788;23.710;2022-12-18T13:45:58;36.93;;;17.87;;
21876;SDS011;11103;43.788;23.710;2022-12-18T13:48:26;34.17;;;18.70;;
21876;SDS011;11103;43.788;23.710;2022-12-18T13:53:28;30.60;;;17.43;;
21876;SDS011;11103;43.788;23.710;2022-12-18T13:55:58;33.67;;;16.70;;
21876;SDS011;11103;43.788;23.710;2022-12-18T13:58:23;36.43;;;18.77;;
21876;SDS011;11103;43.788;23.710;2022-12-18T14:00:49;46.93;;;20.43;;
21876;SDS011;11103;43.788;23.710;2022-12-18T14:03:16;49.47;;;24.47;;
21876;SDS011;11103;43.788;23.710;2022-12-18T14:05:51;39.80;;;19.67;;
21876;SDS011;11103;43.788;23.710;2022-12-18T14:08:41;34.53;;;18.43;;
21876;SDS011;11103;43.788;23.710;2022-12-18T14:11:17;42.97;;;19.67;;
21876;SDS011;11103;43.788;23.710;2022-12-18T14:13:47;40.97;;;20.40;;
21876;SDS011;11103;43.788;23.710;2022-12-18T14:16:14;38.40;;;19.30;;
21876;SDS011;11103;43.788;23.710;2022-12-18T14:18:43;39.97;;;19.63;;
21876;SDS011;11103;43.788;23.710;2022-12-18T14:21:24;48.23;;;21.97;;
21876;SDS011;11103;43.788;23.710;2022-12-18T14:26:39;47.70;;;22.60;;
21876;SDS011;11103;43.788;23.710;2022-12-18T14:32:03;35.27;;;19.67;;
21876;SDS011;11103;43.788;23.710;2022-12-18T14:34:42;36.63;;;17.67;;
21876;SDS011;11103;43.788;23.710;2022-12-18T14:37:13;39.00;;;18.07;;
21876;SDS011;11103;43.788;23.710;2022-12-18T14:39:51;38.30;;;18.97;;
21876;SDS011;11103;43.788;23.710;2022-12-18T14:42:30;37.03;;;18.40;;
21876;SDS011;11103;43.788;23.710;2022-12-18T14:47:58;45.90;;;20.97;;
21876;SDS011;11103;43.788;23.710;2022-12-18T14:50:24;41.10;;;19.57;;
21876;SDS011;11103;43.788;23.710;2022-12-18T14:52:50;44.10;;;19.83;;
21876;SDS011;11103;43.788;23.710;2022-12-18T14:55:19;40.90;;;19.80;;
21876;SDS011;11103;43.788;23.710;2022-12-18T14:57:50;41.77;;;20.83;;
21876;SDS011;11103;43.788;23.710;2022-12-18T15:00:20;46.50;;;22.10;;
21876;SDS011;11103;43.788;23.710;2022-12-18T15:02:48;42.03;;;19.07;;
21876;SDS011;11103;43.788;23.710;2022-12-18T15:05:20;36.90;;;19.80;;
21876;SDS011;11103;43.788;23.710;2022-12-18T15:07:54;41.83;;;19.63;;
21876;SDS011;11103;43.788;23.710;2022-12-18T15:10:25;39.87;;;20.03;;
21876;SDS011;11103;43.788;23.710;2022-12-18T15:20:40;38.87;;;19.53;;
21876;SDS011;11103;43.788;23.710;2022-12-18T15:28:35;45.20;;;22.97;;
21876;SDS011;11103;43.788;23.710;2022-12-18T15:33:41;56.00;;;24.83;;
21876;SDS011;11103;43.788;23.710;2022-12-18T15:36:25;49.90;;;25.00;;
21876;SDS011;11103;43.788;23.710;2022-12-18T15:38:56;51.10;;;25.83;;
21876;SDS011;11103;43.788;23.710;2022-12-18T15:41:24;52.27;;;25.97;;
21876;SDS011;11103;43.788;23.710;2022-12-18T15:43:51;59.70;;;28.03;;
21876;SDS011;11103;43.788;23.710;2022-12-18T15:46:19;52.67;;;25.17;;
21876;SDS011;11103;43.788;23.710;2022-12-18T15:48:47;52.60;;;25.40;;
21876;SDS011;11103;43.788;23.710;2022-12-18T15:53:47;42.03;;;21.27;;
21876;SDS011;11103;43.788;23.710;2022-12-18T15:56:15;46.43;;;23.33;;
21876;SDS011;11103;43.788;23.710;2022-12-18T15:59:00;42.93;;;22.53;;
21876;SDS011;11103;43.788;23.710;2022-12-18T16:01:27;46.53;;;23.47;;
21876;SDS011;11103;43.788;23.710;2022-12-18T16:03:54;45.30;;;22.47;;
21876;SDS011;11103;43.788;23.710;2022-12-18T16:06:21;49.07;;;24.63;;
21876;SDS011;11103;43.788;23.710;2022-12-18T16:08:47;41.57;;;21.70;;
21876;SDS011;11103;43.788;23.710;2022-12-18T16:11:23;46.13;;;23.53;;
21876;SDS011;11103;43.788;23.710;2022-12-18T16:17:02;47.87;;;23.13;;
21876;SDS011;11103;43.788;23.710;2022-12-18T16:19:30;51.87;;;23.07;;
21876;SDS011;11103;43.788;23.710;2022-12-18T16:21:56;49.33;;;24.53;;
21876;SDS011;11103;43.788;23.710;2022-12-18T16:24:24;49.10;;;23.30;;
21876;SDS011;11103;43.788;23.710;2022-12-18T16:26:56;50.63;;;24.73;;
21876;SDS011;11103;43.788;23.710;2022-12-18T16:29:23;46.17;;;23.13;;
21876;SDS011;11103;43.788;23.710;2022-12-18T16:31:53;51.97;;;23.07;;
21876;SDS011;11103;43.788;23.710;2022-12-18T16:34:22;49.43;;;23.37;;
21876;SDS011;11103;43.788;23.710;2022-12-18T16:39:23;56.87;;;26.73;;
21876;SDS011;11103;43.788;23.710;2022-12-18T16:41:49;51.23;;;23.43;;
21876;SDS011;11103;43.788;23.710;2022-12-18T16:44:14;53.73;;;25.27;;
21876;SDS011;11103;43.788;23.710;2022-12-18T16:46:40;50.70;;;23.90;;
21876;SDS011;11103;43.788;23.710;2022-12-18T16:49:10;46.47;;;22.70;;
21876;SDS011;11103;43.788;23.710;2022-12-18T16:51:36;46.70;;;23.27;;
21876;SDS011;11103;43.788;23.710;2022-12-18T16:54:02;50.80;;;22.93;;
21876;SDS011;11103;43.788;23.710;2022-12-18T16:56:28;52.93;;;28.47;;